Time;durP1;ratioP1;P1;durP2;ratioP2;P2;SDS_P1;SDS_P2;PMS_P1;PMS_P2;Temp;Humidity;BMP_temperature;BMP_pressure;BME280_temperature;BME280_humidity;BME280_pressure;Samples;Min_cycle;Max_cycle;Signal;HPM_P1;HPM_P2
2023/05/02 00:01:44;;;;;;;;;;;12.30;94.70;;;;;;5047430;28;19913;-67
2023/05/02 00:04:09;;;;;;;;;;;12.40;94.70;;;;;;5029548;28;19917;-68
2023/05/02 00:06:35;;;;;;;;;;;12.30;94.70;;;;;;5047761;28;19960;-67
2023/05/02 00:09:00;;;;;;;;;;;12.30;94.70;;;;;;5047570;28;19913;-67
2023/05/02 00:11:26;;;;;;;;;;;12.30;94.70;;;;;;5047676;28;19917;-67
2023/05/02 00:13:51;;;;;;;;;;;12.30;94.70;;;;;;5029196;28;20444;-67
2023/05/02 00:16:17;;;;;;;;;;;12.20;94.70;;;;;;5029497;28;19913;-67
2023/05/02 00:18:42;;;;;;;;;;;12.20;94.80;;;;;;5047268;28;19936;-67
2023/05/02 00:21:08;;;;;;;;;;;12.20;94.90;;;;;;5047776;28;19957;-67
2023/05/02 00:23:34;;;;;;;;;;;12.20;94.80;;;;;;5047288;27;19908;-67
2023/05/02 00:25:59;;;;;;;;;;;12.20;94.80;;;;;;5047582;28;20369;-67
2023/05/02 00:28:25;;;;;;;;;;;12.20;94.90;;;;;;5046652;28;20384;-67
2023/05/02 00:30:51;;;;;;;;;;;12.10;94.80;;;;;;5013068;28;19916;-67
2023/05/02 00:33:17;;;;;;;;;;;12.10;94.80;;;;;;5026798;28;19913;-67
2023/05/02 00:35:42;;;;;;;;;;;12.10;94.90;;;;;;5009506;28;20273;-67
2023/05/02 00:38:08;;;;;;;;;;;12.10;94.80;;;;;;5027265;28;19941;-67
2023/05/02 00:40:44;;;;;;;;;;;12.00;94.80;;;;;;5030941;28;19961;-67
2023/05/02 00:43:10;;;;;;;;;;;12.00;94.80;;;;;;5046616;28;19912;-67
2023/05/02 00:45:36;;;;;;;;;;;12.00;94.80;;;;;;5046992;28;19970;-67
2023/05/02 00:48:02;;;;;;;;;;;12.00;94.60;;;;;;5046689;28;19923;-67
2023/05/02 00:50:27;;;;;;;;;;;12.00;94.60;;;;;;5046850;28;19912;-67
2023/05/02 00:52:54;;;;;;;;;;;12.00;94.50;;;;;;5046587;28;19913;-67
2023/05/02 00:55:19;;;;;;;;;;;12.00;94.50;;;;;;5047104;28;19908;-67
2023/05/02 00:57:45;;;;;;;;;;;12.00;94.50;;;;;;5030261;28;20427;-67
2023/05/02 01:00:12;;;;;;;;;;;12.00;94.60;;;;;;5045855;28;20716;-67
2023/05/02 01:02:50;;;;;;;;;;;12.00;94.40;;;;;;5028207;28;20317;-67
2023/05/02 01:05:15;;;;;;;;;;;11.90;94.50;;;;;;5028431;28;20289;-67
2023/05/02 01:07:50;;;;;;;;;;;12.00;94.50;;;;;;5046392;28;19913;-67
2023/05/02 01:10:22;;;;;;;;;;;12.00;94.60;;;;;;5046722;28;19971;-67
2023/05/02 01:12:53;;;;;;;;;;;11.90;94.70;;;;;;5045904;28;20421;-67
2023/05/02 01:15:21;;;;;;;;;;;12.00;94.50;;;;;;5046539;28;20407;-67
2023/05/02 01:17:48;;;;;;;;;;;12.00;94.50;;;;;;5046348;28;19917;-67
2023/05/02 01:20:16;;;;;;;;;;;11.90;94.50;;;;;;5046504;28;19958;-67
2023/05/02 01:22:42;;;;;;;;;;;11.90;94.40;;;;;;5046172;28;20004;-67
2023/05/02 01:25:13;;;;;;;;;;;12.00;94.50;;;;;;5028581;28;19913;-67
2023/05/02 01:28:00;;;;;;;;;;;11.90;94.50;;;;;;5045807;28;19921;-67
2023/05/02 01:30:27;;;;;;;;;;;12.00;94.60;;;;;;5032802;28;20348;-67
2023/05/02 01:32:53;;;;;;;;;;;11.90;94.50;;;;;;5036290;28;19958;-67
2023/05/02 01:35:20;;;;;;;;;;;11.90;94.40;;;;;;5046308;28;19916;-67
2023/05/02 01:37:47;;;;;;;;;;;11.90;94.40;;;;;;5046108;28;19963;-67
2023/05/02 01:40:15;;;;;;;;;;;11.90;94.40;;;;;;5045321;28;20436;-67
2023/05/02 01:42:42;;;;;;;;;;;11.90;94.50;;;;;;5045648;28;19909;-67
2023/05/02 01:45:08;;;;;;;;;;;11.90;94.40;;;;;;5046234;28;19999;-67
2023/05/02 01:47:34;;;;;;;;;;;11.90;94.40;;;;;;5045616;28;20011;-67
2023/05/02 01:50:02;;;;;;;;;;;11.90;94.40;;;;;;5045865;28;19935;-67
2023/05/02 01:52:28;;;;;;;;;;;11.90;94.50;;;;;;5045692;28;19912;-67
2023/05/02 01:54:54;;;;;;;;;;;11.90;94.40;;;;;;5028256;28;19940;-67
2023/05/02 01:57:20;;;;;;;;;;;11.90;94.50;;;;;;5027821;28;20560;-67
2023/05/02 01:59:46;;;;;;;;;;;11.90;94.40;;;;;;5044709;27;19923;-67
2023/05/02 02:02:13;;;;;;;;;;;11.90;94.40;;;;;;5045087;28;20434;-67
2023/05/02 02:04:39;;;;;;;;;;;11.90;94.50;;;;;;5045755;28;20385;-67
2023/05/02 02:07:09;;;;;;;;;;;11.90;94.40;;;;;;5029096;28;19919;-67
2023/05/02 02:09:35;;;;;;;;;;;11.90;94.40;;;;;;5047202;28;20307;-68
2023/05/02 02:12:04;;;;;;;;;;;11.80;94.50;;;;;;5046160;28;19913;-68
2023/05/02 02:14:34;;;;;;;;;;;11.80;94.40;;;;;;5046514;28;19920;-68
2023/05/02 02:17:00;;;;;;;;;;;11.80;94.50;;;;;;5045959;28;20683;-68
2023/05/02 02:19:27;;;;;;;;;;;11.80;94.50;;;;;;5045435;28;19954;-68
2023/05/02 02:21:54;;;;;;;;;;;11.80;94.50;;;;;;5045352;28;19917;-68
2023/05/02 02:24:20;;;;;;;;;;;11.80;94.50;;;;;;5045367;28;19981;-68
2023/05/02 02:26:46;;;;;;;;;;;11.80;94.50;;;;;;5045574;28;19913;-68
2023/05/02 02:29:11;;;;;;;;;;;11.80;94.60;;;;;;5057591;28;19921;-68
2023/05/02 02:31:38;;;;;;;;;;;11.80;94.60;;;;;;5025945;28;19963;-68
2023/05/02 02:34:04;;;;;;;;;;;11.80;94.60;;;;;;5025275;28;19952;-68
2023/05/02 02:36:32;;;;;;;;;;;11.80;94.60;;;;;;5025719;28;19959;-68
2023/05/02 02:39:03;;;;;;;;;;;11.80;94.60;;;;;;5025335;28;20008;-68
2023/05/02 02:41:35;;;;;;;;;;;11.80;94.50;;;;;;5036638;28;19913;-68
2023/05/02 02:44:06;;;;;;;;;;;11.80;94.60;;;;;;5044907;28;20521;-68
2023/05/02 02:46:47;;;;;;;;;;;11.80;94.60;;;;;;5045311;28;19913;-68
2023/05/02 02:49:12;;;;;;;;;;;11.80;94.60;;;;;;5044982;28;19935;-68
2023/05/02 02:51:49;;;;;;;;;;;11.80;94.60;;;;;;5048681;28;20369;-68
2023/05/02 02:54:21;;;;;;;;;;;11.80;94.70;;;;;;5048984;28;19909;-68
2023/05/02 02:56:48;;;;;;;;;;;11.80;94.60;;;;;;5049423;28;19952;-68
2023/05/02 02:59:16;;;;;;;;;;;11.80;94.60;;;;;;5047397;27;19997;-68
2023/05/02 03:01:45;;;;;;;;;;;11.80;94.60;;;;;;5048397;28;19913;-68
2023/05/02 03:04:12;;;;;;;;;;;11.80;94.60;;;;;;5048365;28;19999;-68
2023/05/02 03:06:38;;;;;;;;;;;11.80;94.70;;;;;;5048744;28;20471;-68
2023/05/02 03:09:03;;;;;;;;;;;11.80;94.60;;;;;;5048317;28;19948;-68
2023/05/02 03:11:29;;;;;;;;;;;11.80;94.60;;;;;;5048280;28;20262;-68
2023/05/02 03:13:54;;;;;;;;;;;11.70;94.50;;;;;;5048043;28;19913;-68
2023/05/02 03:16:36;;;;;;;;;;;11.70;94.70;;;;;;5030808;28;19919;-68
2023/05/02 03:19:05;;;;;;;;;;;11.70;94.70;;;;;;5030198;28;19922;-68
2023/05/02 03:21:31;;;;;;;;;;;11.70;94.70;;;;;;5047975;28;20601;-68
2023/05/02 03:24:01;;;;;;;;;;;11.70;94.70;;;;;;5048026;28;19913;-68
2023/05/02 03:26:27;;;;;;;;;;;11.70;94.80;;;;;;5048097;28;19929;-68
2023/05/02 03:28:52;;;;;;;;;;;11.70;94.70;;;;;;5049179;28;20003;-68
2023/05/02 03:31:18;;;;;;;;;;;11.70;94.70;;;;;;5046813;28;20329;-68
2023/05/02 03:33:43;;;;;;;;;;;11.70;94.70;;;;;;5047560;28;19912;-68
2023/05/02 03:36:10;;;;;;;;;;;11.70;94.70;;;;;;5048282;28;20432;-68
2023/05/02 03:38:35;;;;;;;;;;;11.70;94.60;;;;;;5047896;28;19999;-68
2023/05/02 03:41:01;;;;;;;;;;;11.70;94.80;;;;;;5048527;28;19992;-68
2023/05/02 03:43:27;;;;;;;;;;;11.70;94.80;;;;;;5047337;28;19912;-68
2023/05/02 03:45:53;;;;;;;;;;;11.70;94.70;;;;;;5048250;28;19922;-68
2023/05/02 03:48:18;;;;;;;;;;;11.60;94.70;;;;;;5047739;28;19924;-68
2023/05/02 03:50:44;;;;;;;;;;;11.70;94.60;;;;;;5048047;28;19909;-68
2023/05/02 03:53:09;;;;;;;;;;;11.60;94.70;;;;;;5030052;28;19913;-68
2023/05/02 03:55:41;;;;;;;;;;;11.60;94.70;;;;;;5047882;28;20021;-68
2023/05/02 03:58:07;;;;;;;;;;;11.60;94.70;;;;;;5047979;28;19981;-68
2023/05/02 04:00:32;;;;;;;;;;;11.60;94.70;;;;;;5047015;27;20545;-68
2023/05/02 04:03:00;;;;;;;;;;;11.60;94.80;;;;;;5046903;28;19919;-68
2023/05/02 04:05:25;;;;;;;;;;;11.60;94.70;;;;;;5047592;28;20344;-70
2023/05/02 04:07:51;;;;;;;;;;;11.60;94.70;;;;;;5047624;28;19956;-68
2023/05/02 04:10:17;;;;;;;;;;;11.60;94.70;;;;;;5047649;28;19917;-68
2023/05/02 04:12:42;;;;;;;;;;;11.60;94.70;;;;;;5047163;28;19951;-68
2023/05/02 04:15:09;;;;;;;;;;;11.60;94.60;;;;;;5047481;28;19956;-68
2023/05/02 04:17:34;;;;;;;;;;;11.60;94.60;;;;;;5047325;28;19913;-68
2023/05/02 04:20:00;;;;;;;;;;;11.60;94.70;;;;;;5047523;28;19958;-68
2023/05/02 04:22:25;;;;;;;;;;;11.60;94.70;;;;;;5047153;28;19923;-68
2023/05/02 04:24:51;;;;;;;;;;;11.60;94.60;;;;;;5047264;28;20599;-68
2023/05/02 04:27:17;;;;;;;;;;;11.60;94.60;;;;;;5046985;28;19919;-68
2023/05/02 04:29:42;;;;;;;;;;;11.60;94.70;;;;;;5040076;28;19996;-68
2023/05/02 04:32:08;;;;;;;;;;;11.60;94.70;;;;;;5028119;28;19913;-68
2023/05/02 04:34:33;;;;;;;;;;;11.60;94.70;;;;;;5096045;28;19913;-68
2023/05/02 04:37:00;;;;;;;;;;;11.60;94.60;;;;;;5027356;28;19913;-68
2023/05/02 04:39:25;;;;;;;;;;;11.60;94.70;;;;;;5027476;28;19956;-68
2023/05/02 04:41:51;;;;;;;;;;;11.60;94.70;;;;;;5041865;28;19956;-68
2023/05/02 04:44:16;;;;;;;;;;;11.50;94.70;;;;;;5046792;28;19938;-68
2023/05/02 04:46:42;;;;;;;;;;;11.60;94.80;;;;;;5047663;28;19952;-68
2023/05/02 04:49:09;;;;;;;;;;;11.50;94.60;;;;;;5028811;28;20390;-68
2023/05/02 04:51:34;;;;;;;;;;;11.50;94.70;;;;;;5046504;28;19912;-68
2023/05/02 04:54:00;;;;;;;;;;;11.50;94.70;;;;;;5046734;28;19920;-68
2023/05/02 04:56:25;;;;;;;;;;;11.50;94.70;;;;;;5046848;28;19913;-68
2023/05/02 04:58:51;;;;;;;;;;;11.50;94.70;;;;;;5045936;27;19963;-68
2023/05/02 05:01:16;;;;;;;;;;;11.50;94.80;;;;;;5046620;28;19920;-68
2023/05/02 05:03:42;;;;;;;;;;;11.50;95.00;;;;;;5046469;28;19912;-68
2023/05/02 05:06:08;;;;;;;;;;;11.50;94.70;;;;;;5046955;28;20317;-68
2023/05/02 05:08:33;;;;;;;;;;;11.50;94.70;;;;;;5046274;28;20365;-68
2023/05/02 05:10:59;;;;;;;;;;;11.50;94.70;;;;;;5046675;28;19952;-68
2023/05/02 05:13:24;;;;;;;;;;;11.50;94.70;;;;;;5044849;28;19920;-68
2023/05/02 05:15:50;;;;;;;;;;;11.50;94.70;;;;;;5046868;28;19912;-68
2023/05/02 05:18:15;;;;;;;;;;;11.50;95.00;;;;;;5028602;28;19909;-67
2023/05/02 05:20:41;;;;;;;;;;;11.50;94.70;;;;;;5046585;28;19909;-67
2023/05/02 05:23:06;;;;;;;;;;;11.50;94.70;;;;;;5046072;28;19920;-67
2023/05/02 05:25:32;;;;;;;;;;;11.50;94.70;;;;;;5046438;28;19913;-67
2023/05/02 05:27:58;;;;;;;;;;;11.50;94.70;;;;;;5046346;28;19920;-68
2023/05/02 05:30:24;;;;;;;;;;;11.50;94.70;;;;;;5045716;28;19917;-68
2023/05/02 05:32:50;;;;;;;;;;;11.50;94.80;;;;;;5028181;28;19966;-67
2023/05/02 05:35:15;;;;;;;;;;;11.50;94.80;;;;;;5028335;28;19999;-67
2023/05/02 05:37:41;;;;;;;;;;;11.50;94.80;;;;;;5046450;27;19909;-68
2023/05/02 05:40:07;;;;;;;;;;;11.50;94.80;;;;;;5045988;28;19912;-67
2023/05/02 05:42:32;;;;;;;;;;;11.50;95.00;;;;;;5025878;28;20423;-67
2023/05/02 05:44:58;;;;;;;;;;;11.50;95.00;;;;;;5041414;28;19913;-67
2023/05/02 05:47:23;;;;;;;;;;;11.50;95.00;;;;;;5026013;28;19909;-67
2023/05/02 05:49:52;;;;;;;;;;;11.50;95.10;;;;;;5026377;28;20007;-67
2023/05/02 05:52:18;;;;;;;;;;;11.50;95.10;;;;;;5008233;28;19966;-67
2023/05/02 05:54:44;;;;;;;;;;;11.50;95.10;;;;;;5026148;28;19917;-68
2023/05/02 05:57:09;;;;;;;;;;;11.50;95.10;;;;;;5025965;28;19917;-67
2023/05/02 05:59:35;;;;;;;;;;;11.50;95.10;;;;;;5019667;28;19944;-67
2023/05/02 06:02:00;;;;;;;;;;;11.50;95.00;;;;;;5027789;28;20579;-67
2023/05/02 06:04:26;;;;;;;;;;;11.50;95.10;;;;;;5045881;28;20477;-67
2023/05/02 06:06:53;;;;;;;;;;;11.50;95.10;;;;;;5045830;28;19938;-67
2023/05/02 06:09:18;;;;;;;;;;;11.50;95.30;;;;;;5045663;28;19924;-67
2023/05/02 06:11:44;;;;;;;;;;;11.40;95.10;;;;;;5045739;28;19917;-67
2023/05/02 06:14:09;;;;;;;;;;;11.40;95.20;;;;;;5027648;28;20265;-67
2023/05/02 06:16:35;;;;;;;;;;;11.40;95.20;;;;;;5045824;28;19913;-67
2023/05/02 06:19:00;;;;;;;;;;;11.40;95.20;;;;;;5045514;28;20561;-67
2023/05/02 06:21:26;;;;;;;;;;;11.40;95.20;;;;;;5045684;28;19921;-67
2023/05/02 06:23:51;;;;;;;;;;;11.40;95.20;;;;;;5045169;28;20668;-67
2023/05/02 06:26:17;;;;;;;;;;;11.40;95.20;;;;;;5045168;28;19912;-68
2023/05/02 06:28:43;;;;;;;;;;;11.40;95.20;;;;;;5045257;28;19991;-67
2023/05/02 06:31:08;;;;;;;;;;;11.50;95.10;;;;;;5026788;28;19928;-67
2023/05/02 06:33:34;;;;;;;;;;;11.50;95.10;;;;;;5025175;28;19917;-67
2023/05/02 06:35:59;;;;;;;;;;;11.50;95.10;;;;;;5025886;28;20008;-67
2023/05/02 06:38:25;;;;;;;;;;;11.40;94.90;;;;;;5025513;28;19913;-67
2023/05/02 06:40:51;;;;;;;;;;;11.50;95.00;;;;;;5031725;28;19916;-67
2023/05/02 06:43:16;;;;;;;;;;;11.50;95.10;;;;;;5027002;28;20400;-67
2023/05/02 06:45:42;;;;;;;;;;;11.50;95.00;;;;;;5045346;28;19940;-67
2023/05/02 06:48:08;;;;;;;;;;;11.50;95.00;;;;;;5045129;28;20000;-67
2023/05/02 06:50:33;;;;;;;;;;;11.50;95.20;;;;;;5045284;28;19913;-67
2023/05/02 06:52:59;;;;;;;;;;;11.50;95.10;;;;;;5045017;28;20364;-67
2023/05/02 06:55:25;;;;;;;;;;;11.60;95.00;;;;;;5045088;28;20421;-67
2023/05/02 06:57:51;;;;;;;;;;;11.60;94.90;;;;;;5045040;28;20584;-68
2023/05/02 07:00:17;;;;;;;;;;;11.60;95.00;;;;;;5044329;27;20350;-67
2023/05/02 07:02:47;;;;;;;;;;;11.70;95.00;;;;;;5044707;28;19908;-68
2023/05/02 07:05:14;;;;;;;;;;;11.70;94.90;;;;;;5044930;28;20012;-68
2023/05/02 07:07:41;;;;;;;;;;;11.70;95.00;;;;;;5045053;28;19920;-68
2023/05/02 07:10:06;;;;;;;;;;;11.70;94.90;;;;;;5044963;28;19917;-68
2023/05/02 07:12:32;;;;;;;;;;;11.70;94.90;;;;;;5044500;28;19920;-68
2023/05/02 07:14:57;;;;;;;;;;;11.70;94.90;;;;;;5044928;28;20003;-68
2023/05/02 07:17:24;;;;;;;;;;;11.70;95.00;;;;;;5044891;28;19913;-68
2023/05/02 07:19:50;;;;;;;;;;;11.70;95.00;;;;;;5044248;28;19925;-68
2023/05/02 07:22:15;;;;;;;;;;;11.70;94.80;;;;;;5044559;28;20330;-67
2023/05/02 07:24:41;;;;;;;;;;;11.70;94.90;;;;;;5027131;28;19945;-67
2023/05/02 07:27:07;;;;;;;;;;;11.70;95.00;;;;;;5044675;28;19952;-68
2023/05/02 07:29:33;;;;;;;;;;;11.70;95.00;;;;;;5038927;28;19917;-68
2023/05/02 07:31:58;;;;;;;;;;;11.70;94.90;;;;;;5024635;28;19917;-68
2023/05/02 07:34:24;;;;;;;;;;;11.70;95.00;;;;;;5024698;28;20354;-68
2023/05/02 07:36:49;;;;;;;;;;;11.70;94.80;;;;;;5025332;28;19952;-68
2023/05/02 07:39:15;;;;;;;;;;;11.70;95.00;;;;;;5028003;28;19913;-68
2023/05/02 07:41:40;;;;;;;;;;;11.70;95.00;;;;;;5040717;28;20326;-68
2023/05/02 07:44:06;;;;;;;;;;;11.70;94.90;;;;;;5047696;28;19945;-68
2023/05/02 07:46:31;;;;;;;;;;;11.70;95.00;;;;;;5048007;28;19913;-68
2023/05/02 07:48:57;;;;;;;;;;;11.60;95.00;;;;;;5029561;28;19924;-68
2023/05/02 07:51:25;;;;;;;;;;;11.60;94.90;;;;;;5047911;28;20491;-68
2023/05/02 07:53:54;;;;;;;;;;;11.70;95.00;;;;;;5047450;28;19920;-68
2023/05/02 07:56:20;;;;;;;;;;;11.70;94.90;;;;;;5047811;28;20397;-68
2023/05/02 07:58:46;;;;;;;;;;;11.60;94.90;;;;;;5047213;27;20022;-68
2023/05/02 08:01:11;;;;;;;;;;;11.60;94.90;;;;;;5047734;28;19954;-68
2023/05/02 08:03:37;;;;;;;;;;;11.60;95.00;;;;;;5047318;28;19913;-68
2023/05/02 08:06:02;;;;;;;;;;;11.60;95.00;;;;;;5047455;28;19909;-68
2023/05/02 08:08:28;;;;;;;;;;;11.60;94.90;;;;;;5047377;28;19950;-68
2023/05/02 08:10:53;;;;;;;;;;;11.60;95.00;;;;;;5047582;28;19913;-68
2023/05/02 08:13:19;;;;;;;;;;;11.60;94.90;;;;;;5047051;28;19957;-68
2023/05/02 08:15:45;;;;;;;;;;;11.60;94.90;;;;;;5047357;28;19913;-68
2023/05/02 08:18:10;;;;;;;;;;;11.60;95.00;;;;;;5047384;28;20357;-68
2023/05/02 08:20:36;;;;;;;;;;;11.60;95.00;;;;;;5047367;28;19977;-68
2023/05/02 08:23:01;;;;;;;;;;;11.60;95.10;;;;;;5047165;28;20292;-68
2023/05/02 08:25:27;;;;;;;;;;;11.60;95.00;;;;;;5047183;28;20318;-68
2023/05/02 08:27:52;;;;;;;;;;;11.50;95.00;;;;;;5047167;28;19924;-68
2023/05/02 08:30:18;;;;;;;;;;;11.50;95.00;;;;;;5035223;28;20300;-68
2023/05/02 08:32:44;;;;;;;;;;;11.50;95.00;;;;;;5026923;28;20007;-68
2023/05/02 08:35:10;;;;;;;;;;;11.50;95.00;;;;;;5027276;28;19963;-68
2023/05/02 08:37:36;;;;;;;;;;;11.50;95.20;;;;;;5027504;28;19952;-68
2023/05/02 08:40:01;;;;;;;;;;;11.50;95.20;;;;;;5027447;28;20085;-68
2023/05/02 08:42:29;;;;;;;;;;;11.50;95.10;;;;;;5045855;28;19936;-68
2023/05/02 08:44:54;;;;;;;;;;;11.50;95.00;;;;;;5047213;28;20008;-68
2023/05/02 08:47:21;;;;;;;;;;;11.50;95.00;;;;;;5046552;28;20004;-68
2023/05/02 08:49:47;;;;;;;;;;;11.50;95.00;;;;;;5046875;28;19928;-68
2023/05/02 08:52:13;;;;;;;;;;;11.50;95.00;;;;;;5046591;28;20414;-68
2023/05/02 08:54:39;;;;;;;;;;;11.50;95.00;;;;;;5046957;28;19913;-68
2023/05/02 08:57:05;;;;;;;;;;;11.50;94.90;;;;;;5046834;28;20003;-68
2023/05/02 08:59:31;;;;;;;;;;;11.50;95.00;;;;;;5046439;27;19913;-68
2023/05/02 09:02:19;;;;;;;;;;;11.50;94.90;;;;;;5046263;28;19920;-68
2023/05/02 09:04:48;;;;;;;;;;;11.50;94.90;;;;;;5031535;28;20011;-68
2023/05/02 09:07:14;;;;;;;;;;;11.50;95.00;;;;;;5046476;28;19916;-68
2023/05/02 09:09:39;;;;;;;;;;;11.50;94.80;;;;;;5046684;28;20505;-68
2023/05/02 09:12:05;;;;;;;;;;;11.50;94.70;;;;;;5046310;28;19920;-68
2023/05/02 09:14:31;;;;;;;;;;;11.50;94.70;;;;;;5046628;28;19908;-68
2023/05/02 09:16:57;;;;;;;;;;;11.50;94.70;;;;;;5046602;28;19963;-68
2023/05/02 09:19:24;;;;;;;;;;;11.50;94.90;;;;;;5028495;28;19948;-68
2023/05/02 09:21:50;;;;;;;;;;;11.50;94.90;;;;;;5046177;28;19921;-67
2023/05/02 09:24:19;;;;;;;;;;;11.50;94.80;;;;;;5046539;28;19924;-68
2023/05/02 09:26:57;;;;;;;;;;;11.50;94.90;;;;;;5046488;28;20425;-68
2023/05/02 09:29:23;;;;;;;;;;;11.50;94.80;;;;;;5040719;28;19918;-68
2023/05/02 09:31:48;;;;;;;;;;;11.50;94.80;;;;;;5023216;28;19942;-68
2023/05/02 09:34:15;;;;;;;;;;;11.40;94.80;;;;;;5025601;28;19932;-68
2023/05/02 09:36:41;;;;;;;;;;;11.50;94.80;;;;;;5026013;28;20000;-68
2023/05/02 09:39:12;;;;;;;;;;;11.40;94.80;;;;;;5025869;28;20032;-68
2023/05/02 09:41:44;;;;;;;;;;;11.40;94.80;;;;;;5038241;28;19913;-67
2023/05/02 09:44:11;;;;;;;;;;;11.40;94.70;;;;;;5045792;28;19909;-68
2023/05/02 09:46:40;;;;;;;;;;;11.40;94.70;;;;;;5046251;28;19956;-68
2023/05/02 09:49:08;;;;;;;;;;;11.40;94.70;;;;;;5045756;28;20007;-68
2023/05/02 09:51:34;;;;;;;;;;;11.40;94.70;;;;;;5046326;28;20033;-68
2023/05/02 09:54:00;;;;;;;;;;;11.50;94.70;;;;;;5045624;28;20653;-68
2023/05/02 09:56:25;;;;;;;;;;;11.50;94.70;;;;;;5045954;28;20047;-68
2023/05/02 09:58:51;;;;;;;;;;;11.50;94.70;;;;;;5045318;28;19913;-68
2023/05/02 10:01:17;;;;;;;;;;;11.50;94.70;;;;;;5044924;28;20520;-68
2023/05/02 10:03:45;;;;;;;;;;;11.50;94.60;;;;;;5045635;28;19913;-68
2023/05/02 10:06:11;;;;;;;;;;;11.60;94.60;;;;;;5028058;28;19909;-68
2023/05/02 10:08:38;;;;;;;;;;;11.60;94.50;;;;;;5045819;28;19923;-68
2023/05/02 10:11:05;;;;;;;;;;;11.70;94.50;;;;;;5045862;28;19974;-67
2023/05/02 10:13:31;;;;;;;;;;;11.70;94.30;;;;;;5045386;28;20421;-68
2023/05/02 10:15:58;;;;;;;;;;;11.80;94.20;;;;;;5045584;28;19938;-68
2023/05/02 10:18:30;;;;;;;;;;;11.80;94.10;;;;;;5045605;28;19951;-68
2023/05/02 10:20:57;;;;;;;;;;;11.90;94.00;;;;;;5045568;28;19917;-68
2023/05/02 10:23:27;;;;;;;;;;;12.00;93.90;;;;;;5027454;28;19913;-68
2023/05/02 10:25:52;;;;;;;;;;;12.10;93.80;;;;;;5045484;28;19912;-68
2023/05/02 10:28:18;;;;;;;;;;;12.10;93.60;;;;;;5045318;28;20543;-68
2023/05/02 10:30:44;;;;;;;;;;;12.20;93.50;;;;;;5030042;28;19953;-68
2023/05/02 10:33:12;;;;;;;;;;;12.30;93.40;;;;;;5025254;28;19913;-68
2023/05/02 10:35:38;;;;;;;;;;;12.40;93.30;;;;;;5025611;28;19921;-68
2023/05/02 10:38:04;;;;;;;;;;;12.40;93.20;;;;;;5025496;28;19917;-68
2023/05/02 10:40:30;;;;;;;;;;;12.50;93.10;;;;;;5028862;28;19931;-68
2023/05/02 10:42:56;;;;;;;;;;;12.50;93.00;;;;;;5044905;28;20273;-68
2023/05/02 10:45:37;;;;;;;;;;;12.60;92.80;;;;;;5045441;28;19943;-68
2023/05/02 10:48:16;;;;;;;;;;;12.60;92.70;;;;;;5045139;28;19917;-68
2023/05/02 10:50:42;;;;;;;;;;;12.70;92.60;;;;;;5045254;28;19916;-68
2023/05/02 10:53:26;;;;;;;;;;;12.80;92.60;;;;;;5045075;28;19912;-68
2023/05/02 10:56:07;;;;;;;;;;;12.80;92.50;;;;;;5045174;28;19913;-68
2023/05/02 10:58:33;;;;;;;;;;;12.90;92.50;;;;;;5044125;27;20293;-68
2023/05/02 11:01:18;;;;;;;;;;;12.90;92.30;;;;;;5044822;28;19913;-68
2023/05/02 11:03:53;;;;;;;;;;;13.00;92.40;;;;;;5044444;28;19913;-68
2023/05/02 11:06:19;;;;;;;;;;;13.00;92.20;;;;;;5045111;28;19923;-68
2023/05/02 11:08:45;;;;;;;;;;;13.20;92.00;;;;;;5044958;28;20289;-68
2023/05/02 11:11:29;;;;;;;;;;;13.20;92.00;;;;;;5045035;28;19912;-68
2023/05/02 11:13:54;;;;;;;;;;;13.30;91.80;;;;;;5027757;28;19913;-68
2023/05/02 11:16:20;;;;;;;;;;;13.30;91.80;;;;;;5028047;28;19992;-68
2023/05/02 11:18:59;;;;;;;;;;;13.40;91.70;;;;;;5010364;28;19940;-68
2023/05/02 11:21:28;;;;;;;;;;;13.40;91.60;;;;;;5040460;28;19983;-68
2023/05/02 11:24:13;;;;;;;;;;;13.50;91.50;;;;;;5048018;28;19913;-68
2023/05/02 11:26:38;;;;;;;;;;;13.50;91.40;;;;;;5048345;28;19913;-68
2023/05/02 11:29:04;;;;;;;;;;;13.50;91.40;;;;;;5046221;28;19923;-68
2023/05/02 11:31:29;;;;;;;;;;;13.50;91.50;;;;;;5028481;28;19914;-68
2023/05/02 11:33:59;;;;;;;;;;;13.50;91.60;;;;;;5028061;28;19920;-68
2023/05/02 11:36:32;;;;;;;;;;;13.40;91.60;;;;;;5028244;28;19909;-68
2023/05/02 11:38:58;;;;;;;;;;;13.40;91.70;;;;;;5028164;28;19913;-68
2023/05/02 11:41:37;;;;;;;;;;;13.30;91.80;;;;;;5038564;28;19920;-68
2023/05/02 11:44:02;;;;;;;;;;;13.30;91.90;;;;;;5047693;28;20419;-68
2023/05/02 11:46:28;;;;;;;;;;;13.30;91.70;;;;;;5047944;28;19956;-68
2023/05/02 11:48:54;;;;;;;;;;;13.30;91.70;;;;;;5047544;28;19917;-68
2023/05/02 11:51:23;;;;;;;;;;;13.30;91.70;;;;;;5047914;28;19909;-68
2023/05/02 11:53:48;;;;;;;;;;;13.30;91.50;;;;;;5047482;28;19946;-68
2023/05/02 11:56:14;;;;;;;;;;;13.40;91.70;;;;;;5047672;28;19909;-68
2023/05/02 11:58:40;;;;;;;;;;;13.30;91.40;;;;;;5047326;28;20612;-68
2023/05/02 12:01:12;;;;;;;;;;;13.40;91.40;;;;;;5047531;28;19913;-68
2023/05/02 12:03:38;;;;;;;;;;;13.40;91.30;;;;;;5047349;28;19913;-68
2023/05/02 12:06:09;;;;;;;;;;;13.40;91.10;;;;;;5048163;28;19912;-68
2023/05/02 12:08:35;;;;;;;;;;;13.50;91.10;;;;;;5029676;28;19917;-68
2023/05/02 12:11:01;;;;;;;;;;;13.60;91.10;;;;;;5047819;28;19916;-68
2023/05/02 12:13:26;;;;;;;;;;;13.60;90.90;;;;;;5046866;28;19966;-68
2023/05/02 12:15:53;;;;;;;;;;;13.60;90.80;;;;;;5047655;28;20293;-68
2023/05/02 12:18:19;;;;;;;;;;;13.60;90.80;;;;;;5029121;28;20351;-68
2023/05/02 12:20:45;;;;;;;;;;;13.60;90.70;;;;;;5046792;28;19920;-68
2023/05/02 12:23:11;;;;;;;;;;;13.70;90.70;;;;;;5046192;28;19924;-68
2023/05/02 12:25:38;;;;;;;;;;;13.70;90.60;;;;;;5046214;28;19913;-68
2023/05/02 12:28:03;;;;;;;;;;;13.80;90.50;;;;;;5046644;28;19924;-68
2023/05/02 12:30:29;;;;;;;;;;;13.80;90.40;;;;;;5034037;28;19913;-68
2023/05/02 12:32:57;;;;;;;;;;;13.80;90.30;;;;;;5027044;28;19920;-68
2023/05/02 12:35:22;;;;;;;;;;;13.80;90.20;;;;;;5027411;28;19958;-68
2023/05/02 12:37:48;;;;;;;;;;;13.80;89.80;;;;;;5027370;28;20701;-68
2023/05/02 12:40:14;;;;;;;;;;;13.90;90.00;;;;;;5027913;28;19944;-68
2023/05/02 12:42:40;;;;;;;;;;;14.00;89.90;;;;;;5046719;28;20012;-68
2023/05/02 12:45:15;;;;;;;;;;;14.00;89.50;;;;;;5047230;28;19995;-68
2023/05/02 12:47:45;;;;;;;;;;;14.10;89.60;;;;;;5046438;28;19917;-69
2023/05/02 12:50:10;;;;;;;;;;;14.10;89.60;;;;;;5046524;28;19917;-69
2023/05/02 12:52:50;;;;;;;;;;;14.20;89.50;;;;;;5046490;28;20433;-68
2023/05/02 12:55:26;;;;;;;;;;;14.20;89.20;;;;;;5046232;28;19948;-68
2023/05/02 12:58:00;;;;;;;;;;;14.20;88.90;;;;;;5045687;28;20272;-68
2023/05/02 13:00:26;;;;;;;;;;;14.30;88.60;;;;;;5044182;27;20349;-68
2023/05/02 13:02:51;;;;;;;;;;;14.40;88.40;;;;;;5046088;28;19951;-68
2023/05/02 13:05:17;;;;;;;;;;;14.40;88.50;;;;;;5046165;28;19919;-68
2023/05/02 13:07:43;;;;;;;;;;;14.60;88.00;;;;;;5036492;28;20425;-68
2023/05/02 13:10:10;;;;;;;;;;;14.60;87.60;;;;;;5046241;28;19912;-68
2023/05/02 13:12:37;;;;;;;;;;;14.60;87.50;;;;;;5045765;28;19913;-68
2023/05/02 13:15:06;;;;;;;;;;;14.60;87.30;;;;;;5035541;28;19930;-68
2023/05/02 13:17:32;;;;;;;;;;;14.60;86.80;;;;;;5043335;28;19913;-68
2023/05/02 13:19:57;;;;;;;;;;;14.60;86.80;;;;;;5046462;28;20429;-68
2023/05/02 13:22:23;;;;;;;;;;;14.70;86.90;;;;;;5027605;28;19928;-68
2023/05/02 13:24:48;;;;;;;;;;;14.70;86.90;;;;;;5030588;28;19913;-68
2023/05/02 13:27:17;;;;;;;;;;;14.80;86.50;;;;;;5046151;28;19932;-68
2023/05/02 13:29:45;;;;;;;;;;;14.90;86.30;;;;;;5039338;28;19917;-68
2023/05/02 13:32:12;;;;;;;;;;;14.90;86.10;;;;;;5025459;28;20327;-68
2023/05/02 13:34:38;;;;;;;;;;;14.90;86.20;;;;;;5025247;28;20021;-68
2023/05/02 13:37:03;;;;;;;;;;;14.90;86.30;;;;;;5026495;28;19996;-68
2023/05/02 13:39:29;;;;;;;;;;;14.90;86.30;;;;;;5026535;28;20374;-68
2023/05/02 13:41:55;;;;;;;;;;;15.00;85.50;;;;;;5040916;28;19917;-69
2023/05/02 13:44:20;;;;;;;;;;;14.90;85.70;;;;;;5046027;28;19966;-68
2023/05/02 13:46:46;;;;;;;;;;;14.90;85.30;;;;;;5028412;28;20672;-68
2023/05/02 13:49:12;;;;;;;;;;;14.90;85.50;;;;;;5046006;28;19917;-68
2023/05/02 13:51:37;;;;;;;;;;;15.00;85.40;;;;;;5046075;28;20021;-68
2023/05/02 13:54:03;;;;;;;;;;;15.10;85.50;;;;;;5045854;28;20328;-68
2023/05/02 13:56:28;;;;;;;;;;;15.10;85.80;;;;;;5027960;28;20358;-69
2023/05/02 13:58:54;;;;;;;;;;;15.10;85.10;;;;;;5044810;28;19913;-68
2023/05/02 14:01:19;;;;;;;;;;;15.20;85.20;;;;;;5045692;28;19912;-68
2023/05/02 14:03:45;;;;;;;;;;;15.20;85.10;;;;;;5045572;28;19916;-68
2023/05/02 14:06:10;;;;;;;;;;;15.20;84.90;;;;;;5045866;28;19973;-68
2023/05/02 14:08:36;;;;;;;;;;;15.10;84.60;;;;;;5045465;28;19942;-68
2023/05/02 14:11:02;;;;;;;;;;;15.20;85.00;;;;;;5045736;28;19920;-68
2023/05/02 14:13:27;;;;;;;;;;;15.30;85.20;;;;;;5045219;28;19909;-69
2023/05/02 14:15:53;;;;;;;;;;;15.40;84.90;;;;;;5045772;28;20021;-69